createdAt,value
2022-08-22T00:02:43.622Z,1007.36
2022-08-22T00:02:44.020Z,1007.47
2022-08-22T00:02:47.781Z,1006.95
2022-08-22T00:02:48.150Z,1007.16
2022-08-22T00:03:04.492Z,1007.00
2022-08-22T00:03:07.585Z,1007.25
2022-08-22T00:03:17.558Z,1007.66
2022-08-22T00:06:02.244Z,1007.61
2022-08-22T00:09:09.924Z,1007.57
2022-08-22T00:12:17.595Z,1007.60
2022-08-22T00:15:42.979Z,1007.54
2022-08-22T00:18:30.184Z,1007.57
2022-08-22T00:21:37.947Z,1007.56
2022-08-22T00:24:45.643Z,1007.59
2022-08-22T00:27:53.330Z,1007.63
2022-08-22T00:31:01.534Z,1007.62
2022-08-22T00:34:08.949Z,1007.66
2022-08-22T00:37:16.822Z,1007.64
2022-08-22T00:40:26.093Z,1007.57
2022-08-22T00:43:25.783Z,1007.61
2022-08-22T00:46:33.491Z,1007.62
2022-08-22T00:49:40.896Z,1007.62
2022-08-22T00:52:49.085Z,1007.71
2022-08-22T00:55:56.387Z,1007.70
2022-08-22T00:59:23.489Z,1007.71
2022-08-22T01:02:09.886Z,1007.75
2022-08-22T01:05:17.150Z,1007.74
2022-08-22T01:08:25.498Z,1007.78
2022-08-22T01:11:33.618Z,1007.71
2022-08-22T01:14:40.953Z,1007.81
2022-08-22T01:17:48.759Z,1007.79
2022-08-22T01:20:56.374Z,1007.77
2022-08-22T01:24:04.194Z,1007.72
2022-08-22T01:27:12.366Z,1007.74
2022-08-22T01:30:19.967Z,1007.72
2022-08-22T01:33:30.945Z,1007.66
2022-08-22T01:36:38.540Z,1007.70
2022-08-22T01:39:46.608Z,1007.63
2022-08-22T01:42:54.299Z,1007.67
2022-08-22T01:46:02.010Z,1007.69
2022-08-22T01:49:09.732Z,1007.74
2022-08-22T01:52:17.861Z,1007.73
2022-08-22T01:55:27.386Z,1007.70
2022-08-22T01:58:35.041Z,1007.73
2022-08-22T02:01:42.275Z,1007.68
2022-08-22T02:04:50.303Z,1007.67
2022-08-22T02:07:58.049Z,1007.73
2022-08-22T02:11:05.756Z,1007.72
2022-08-22T02:14:14.088Z,1007.73
2022-08-22T02:17:21.468Z,1007.81
2022-08-22T02:20:29.429Z,1007.71
2022-08-22T02:23:37.601Z,1007.74
2022-08-22T02:26:44.960Z,1007.75
2022-08-22T02:29:53.080Z,1007.70
2022-08-22T02:33:00.683Z,1007.71
2022-08-22T02:36:08.543Z,1007.64
2022-08-22T02:39:16.641Z,1007.65
2022-08-22T02:42:24.095Z,1007.71
2022-08-22T02:45:31.916Z,1007.73
2022-08-22T02:48:39.607Z,1007.75
2022-08-22T02:51:47.587Z,1007.86
2022-08-22T02:54:55.303Z,1007.74
2022-08-22T02:58:03.309Z,1007.73
2022-08-22T03:01:11.082Z,1007.78
2022-08-22T03:04:18.410Z,1007.74
2022-08-22T03:07:26.402Z,1007.79
2022-08-22T03:10:34.032Z,1007.82
2022-08-22T03:13:41.672Z,1007.85
2022-08-22T03:16:49.665Z,1007.81
2022-08-22T03:19:57.255Z,1007.77
2022-08-22T03:23:04.887Z,1007.79
2022-08-22T03:26:12.996Z,1007.73
2022-08-22T03:29:20.647Z,1007.70
2022-08-22T03:32:28.386Z,1007.70
2022-08-22T03:35:36.077Z,1007.72
2022-08-22T03:38:43.830Z,1007.68
2022-08-22T03:41:51.349Z,1007.74
2022-08-22T03:44:59.401Z,1007.78
2022-08-22T03:48:07.182Z,1007.77
2022-08-22T03:51:15.013Z,1007.75
2022-08-22T03:54:23.203Z,1007.79
2022-08-22T03:57:30.514Z,1007.85
2022-08-22T04:00:38.375Z,1007.96
2022-08-22T04:03:46.457Z,1007.96
2022-08-22T04:06:56.399Z,1007.94
2022-08-22T04:10:04.487Z,1007.99
2022-08-22T04:13:12.334Z,1008.02
2022-08-22T04:16:20.088Z,1007.94
2022-08-22T04:19:28.319Z,1008.00
2022-08-22T04:22:36.220Z,1008.02
2022-08-22T04:25:44.071Z,1007.96
2022-08-22T04:28:51.971Z,1008.02
2022-08-22T04:31:59.912Z,1007.99
2022-08-22T04:35:08.103Z,1007.99
2022-08-22T04:38:16.625Z,1008.04
2022-08-22T04:41:24.206Z,1008.06
2022-08-22T04:44:31.964Z,1008.14
2022-08-22T04:47:39.967Z,1008.06
2022-08-22T04:50:47.727Z,1008.07
2022-08-22T04:53:55.428Z,1008.10
2022-08-22T04:57:03.618Z,1008.11
2022-08-22T05:00:11.389Z,1008.11
2022-08-22T05:03:19.229Z,1008.12
2022-08-22T05:06:27.181Z,1008.07
2022-08-22T05:09:34.519Z,1008.16
2022-08-22T05:12:42.622Z,1008.12
2022-08-22T05:15:50.334Z,1008.16
2022-08-22T05:18:57.794Z,1008.19
2022-08-22T05:22:05.835Z,1008.14
2022-08-22T05:25:13.144Z,1008.27
2022-08-22T05:28:21.174Z,1008.22
2022-08-22T05:31:29.167Z,1008.31
2022-08-22T05:34:36.458Z,1008.30
2022-08-22T05:37:44.329Z,1008.34
2022-08-22T05:40:52.020Z,1008.39
2022-08-22T05:43:59.837Z,1008.28
2022-08-22T05:47:08.191Z,1008.34
2022-08-22T05:50:16.082Z,1008.38
2022-08-22T05:53:23.805Z,1008.45
2022-08-22T05:56:31.444Z,1008.50
2022-08-22T05:59:39.515Z,1008.46
2022-08-22T06:02:47.196Z,1008.47
2022-08-22T06:05:54.656Z,1008.49
2022-08-22T06:09:02.675Z,1008.48
2022-08-22T06:12:13.749Z,1008.53
2022-08-22T06:15:15.220Z,1008.54
2022-08-22T06:18:24.710Z,1008.47
2022-08-22T06:21:38.639Z,1008.46
2022-08-22T06:24:35.832Z,1008.53
2022-08-22T06:27:43.122Z,1008.58
2022-08-22T06:30:51.353Z,1008.52
2022-08-22T06:33:59.505Z,1008.50
2022-08-22T06:37:06.805Z,1008.52
2022-08-22T06:40:15.055Z,1008.54
2022-08-22T06:43:22.546Z,1008.54
2022-08-22T06:46:30.828Z,1008.50
2022-08-22T06:49:39.018Z,1008.53
2022-08-22T06:52:46.717Z,1008.51
2022-08-22T06:55:54.400Z,1008.44
2022-08-22T06:59:02.351Z,1008.45
2022-08-22T07:02:09.701Z,1008.41
2022-08-22T07:05:17.550Z,1008.48
2022-08-22T07:08:25.404Z,1008.44
2022-08-22T07:11:33.663Z,1008.42
2022-08-22T07:14:41.476Z,1008.48
2022-08-22T07:17:49.219Z,1008.45
2022-08-22T07:20:57.349Z,1008.44
2022-08-22T07:24:05.229Z,1008.47
2022-08-22T07:27:13.550Z,1008.52
2022-08-22T07:30:27.660Z,1008.56
2022-08-22T07:33:27.017Z,1008.54
2022-08-22T07:36:35.284Z,1008.41
2022-08-22T07:39:42.992Z,1008.47
2022-08-22T07:42:51.395Z,1008.51
2022-08-22T07:45:59.325Z,1008.49
2022-08-22T07:49:09.654Z,1008.45
2022-08-22T07:52:07.389Z,1008.45
2022-08-22T07:55:15.549Z,1008.46
2022-08-22T07:58:22.851Z,1008.51
2022-08-22T08:01:31.179Z,1008.55
2022-08-22T08:04:40.565Z,1008.48
2022-08-22T08:07:48.514Z,1008.45
2022-08-22T08:10:56.675Z,1008.47
2022-08-22T08:14:04.426Z,1008.44
2022-08-22T08:17:12.167Z,1008.43
2022-08-22T08:20:20.048Z,1008.45
2022-08-22T08:23:28.000Z,1008.49
2022-08-22T08:26:35.847Z,1008.50
2022-08-22T08:29:43.540Z,1008.43
2022-08-22T08:32:51.444Z,1008.47
2022-08-22T08:36:03.065Z,1008.44
2022-08-22T08:39:00.056Z,1008.38
2022-08-22T08:42:07.708Z,1008.39
2022-08-22T08:45:15.306Z,1008.39
2022-08-22T08:48:23.546Z,1008.36
2022-08-22T08:51:30.985Z,1008.33
2022-08-22T08:54:39.009Z,1008.32
2022-08-22T08:57:49.421Z,1008.34
2022-08-22T09:00:57.028Z,1008.32
2022-08-22T09:04:07.372Z,1008.26
2022-08-22T09:07:11.815Z,1008.33
2022-08-22T09:10:19.595Z,1008.32
2022-08-22T09:13:27.746Z,1008.38
2022-08-22T09:16:31.640Z,1008.29
2022-08-22T09:19:39.328Z,1008.28
2022-08-22T09:22:50.667Z,1008.29
2022-08-22T09:25:50.362Z,1008.24
2022-08-22T09:28:57.962Z,1008.33
2022-08-22T09:32:05.680Z,1008.26
2022-08-22T09:35:10.030Z,1008.19
2022-08-22T09:38:17.775Z,1008.15
2022-08-22T09:41:27.475Z,1008.09
2022-08-22T09:44:39.751Z,1008.16
2022-08-22T09:47:47.349Z,1008.14
2022-08-22T09:51:04.652Z,1008.15
2022-08-22T09:54:00.124Z,1008.13
2022-08-22T09:57:08.282Z,1008.04
2022-08-22T10:00:16.334Z,1007.95
2022-08-22T10:03:23.632Z,1007.96
2022-08-22T10:06:31.735Z,1007.94
2022-08-22T10:09:40.367Z,1007.96
2022-08-22T10:12:48.167Z,1007.91
2022-08-22T10:15:58.076Z,1007.89
2022-08-22T10:19:06.440Z,1007.86
2022-08-22T10:22:14.173Z,1007.85
2022-08-22T10:25:22.126Z,1007.70
2022-08-22T10:28:31.204Z,1007.69
2022-08-22T10:31:58.502Z,1007.76
2022-08-22T10:34:44.637Z,1007.75
2022-08-22T10:37:53.128Z,1007.75
2022-08-22T10:41:00.630Z,1007.60
2022-08-22T10:44:08.260Z,1007.67
2022-08-22T10:47:19.143Z,1007.57
2022-08-22T10:50:29.014Z,1007.58
2022-08-22T10:53:29.686Z,1007.55
2022-08-22T10:56:37.622Z,1007.55
2022-08-22T10:59:37.285Z,1007.50
2022-08-22T11:02:47.502Z,1007.48
2022-08-22T11:05:54.885Z,1007.35
2022-08-22T11:09:02.831Z,1007.34
2022-08-22T11:12:10.641Z,1007.29
2022-08-22T11:15:28.483Z,1007.35
2022-08-22T11:18:23.525Z,1007.30
2022-08-22T11:21:31.316Z,1007.31
2022-08-22T11:24:55.785Z,1007.29
2022-08-22T11:27:44.446Z,1007.27
2022-08-22T11:30:52.278Z,1007.21
2022-08-22T11:34:00.084Z,1007.17
2022-08-22T11:37:11.084Z,1007.18
2022-08-22T11:40:19.159Z,1007.24
2022-08-22T11:43:27.886Z,1007.18
2022-08-22T11:46:29.606Z,1007.18
2022-08-22T11:49:37.566Z,1007.09
2022-08-22T11:52:51.737Z,1007.16
2022-08-22T11:55:49.560Z,1007.12
2022-08-22T11:58:57.350Z,1007.05
2022-08-22T12:02:04.999Z,1007.03
2022-08-22T12:05:06.173Z,1006.99
2022-08-22T12:08:14.035Z,1007.02
2022-08-22T12:11:21.947Z,1007.04
2022-08-22T12:14:30.054Z,1007.05
2022-08-22T12:17:55.485Z,1007.03
2022-08-22T12:20:45.392Z,1006.98
2022-08-22T12:23:53.322Z,1006.96
2022-08-22T12:27:00.673Z,1007.07
2022-08-22T12:30:12.882Z,1006.99
2022-08-22T12:33:10.446Z,1007.05
2022-08-22T12:36:18.079Z,1007.04
2022-08-22T12:39:15.769Z,1006.96
2022-08-22T12:42:23.549Z,1006.87
2022-08-22T12:45:32.292Z,1006.86
2022-08-22T12:48:40.275Z,1006.81
2022-08-22T12:51:48.584Z,1006.76
2022-08-22T12:54:49.697Z,1006.67
2022-08-22T12:57:57.346Z,1006.62
2022-08-22T13:01:05.142Z,1006.61
2022-08-22T13:04:19.327Z,1006.60
2022-08-22T13:07:19.504Z,1006.59
2022-08-22T13:10:19.711Z,1006.58
2022-08-22T13:13:31.742Z,1006.52
2022-08-22T13:16:32.524Z,1006.52
2022-08-22T13:19:40.486Z,1006.54
2022-08-22T13:22:48.956Z,1006.50
2022-08-22T13:25:51.450Z,1006.45
2022-08-22T13:29:15.523Z,1006.49
2022-08-22T13:32:04.730Z,1006.35
2022-08-22T13:35:12.144Z,1006.45
2022-08-22T13:38:25.629Z,1006.42
2022-08-22T13:41:23.686Z,1006.46
2022-08-22T13:44:31.068Z,1006.45
2022-08-22T13:47:39.711Z,1006.48
2022-08-22T13:50:53.638Z,1006.49
2022-08-22T13:54:01.899Z,1006.45
2022-08-22T13:56:56.014Z,1006.42
2022-08-22T14:00:06.486Z,1006.49
2022-08-22T14:03:14.618Z,1006.46
2022-08-22T14:06:32.606Z,1006.47
2022-08-22T14:09:32.036Z,1006.45
2022-08-22T14:12:29.231Z,1006.37
2022-08-22T14:15:33.926Z,1006.28
2022-08-22T14:18:35.713Z,1006.31
2022-08-22T14:21:43.124Z,1006.29
2022-08-22T14:24:55.523Z,1006.32
2022-08-22T14:27:52.457Z,1006.25
2022-08-22T14:31:01.133Z,1006.22
2022-08-22T14:34:10.059Z,1006.19
2022-08-22T14:37:17.688Z,1006.05
2022-08-22T14:40:26.125Z,1006.05
2022-08-22T14:43:34.904Z,1006.08
2022-08-22T14:46:37.465Z,1006.17
2022-08-22T14:49:47.202Z,1006.03
2022-08-22T14:52:54.745Z,1006.15
2022-08-22T14:56:02.538Z,1006.15
2022-08-22T14:59:11.040Z,1006.06
2022-08-22T15:02:11.641Z,1006.09
2022-08-22T15:05:19.333Z,1005.95
2022-08-22T15:08:27.477Z,1005.97
2022-08-22T15:11:35.464Z,1005.93
2022-08-22T15:14:43.606Z,1005.93
2022-08-22T15:17:52.331Z,1005.93
2022-08-22T15:21:00.270Z,1005.95
2022-08-22T15:24:07.883Z,1005.95
2022-08-22T15:27:16.552Z,1005.96
2022-08-22T15:30:25.254Z,1005.93
2022-08-22T15:33:33.877Z,1005.87
2022-08-22T15:36:42.518Z,1005.86
2022-08-22T15:39:50.609Z,1005.87
2022-08-22T15:42:59.432Z,1005.88
2022-08-22T15:46:07.449Z,1005.92
2022-08-22T15:49:18.071Z,1005.81
2022-08-22T15:52:26.048Z,1005.82
2022-08-22T15:55:34.459Z,1005.84
2022-08-22T15:58:48.809Z,1005.85
2022-08-22T16:01:49.700Z,1005.91
2022-08-22T16:04:47.356Z,1005.74
2022-08-22T16:07:54.750Z,1005.78
2022-08-22T16:11:02.591Z,1005.71
2022-08-22T16:14:10.743Z,1005.74
2022-08-22T16:17:18.054Z,1005.79
2022-08-22T16:20:26.175Z,1005.70
2022-08-22T16:23:33.747Z,1005.75
2022-08-22T16:26:41.118Z,1005.72
2022-08-22T16:29:48.930Z,1005.70
2022-08-22T16:32:56.671Z,1005.70
2022-08-22T16:36:04.464Z,1005.68
2022-08-22T16:39:12.314Z,1005.77
2022-08-22T16:42:20.225Z,1005.75
2022-08-22T16:45:28.226Z,1005.73
2022-08-22T16:48:36.195Z,1005.76
2022-08-22T16:51:44.205Z,1005.71
2022-08-22T16:54:51.522Z,1005.84
2022-08-22T16:58:06.442Z,1005.78
2022-08-22T17:01:03.403Z,1005.91
2022-08-22T17:04:10.671Z,1005.86
2022-08-22T17:07:18.983Z,1005.93
2022-08-22T17:10:26.817Z,1005.93
2022-08-22T17:13:34.163Z,1006.02
2022-08-22T17:16:42.161Z,1005.92
2022-08-22T17:19:49.481Z,1005.92
2022-08-22T17:22:58.122Z,1006.00
2022-08-22T17:26:06.135Z,1006.04
2022-08-22T17:29:13.485Z,1006.03
2022-08-22T17:32:21.674Z,1005.99
2022-08-22T17:35:29.409Z,1006.10
2022-08-22T17:38:36.871Z,1006.13
2022-08-22T17:41:44.822Z,1006.19
2022-08-22T17:44:53.334Z,1006.25
2022-08-22T17:48:00.990Z,1006.19
2022-08-22T17:51:09.135Z,1006.31
2022-08-22T17:54:16.917Z,1006.34
2022-08-22T17:57:24.858Z,1006.35
2022-08-22T18:00:32.629Z,1006.32
2022-08-22T18:03:40.331Z,1006.45
2022-08-22T18:06:48.081Z,1006.55
2022-08-22T18:09:51.573Z,1006.49
2022-08-22T18:13:02.413Z,1006.48
2022-08-22T18:16:03.372Z,1006.58
2022-08-22T18:19:10.886Z,1006.56
2022-08-22T18:22:18.535Z,1006.60
2022-08-22T18:25:26.158Z,1006.68
2022-08-22T18:28:34.500Z,1006.72
2022-08-22T18:31:42.471Z,1006.77
2022-08-22T18:34:50.323Z,1006.73
2022-08-22T18:37:58.205Z,1006.93
2022-08-22T18:41:05.956Z,1006.86
2022-08-22T18:44:13.788Z,1006.87
2022-08-22T18:47:21.498Z,1006.86
2022-08-22T18:50:28.876Z,1006.90
2022-08-22T18:53:36.931Z,1007.01
2022-08-22T18:56:44.681Z,1007.06
2022-08-22T18:59:52.044Z,1007.03
2022-08-22T19:03:00.163Z,1007.06
2022-08-22T19:06:07.837Z,1007.10
2022-08-22T19:09:15.567Z,1007.11
2022-08-22T19:12:23.457Z,1007.09
2022-08-22T19:15:30.812Z,1007.05
2022-08-22T19:18:39.040Z,1007.01
2022-08-22T19:21:47.099Z,1007.11
2022-08-22T19:24:54.432Z,1007.15
2022-08-22T19:28:02.261Z,1007.13
2022-08-22T19:31:12.076Z,1007.15
2022-08-22T19:34:10.476Z,1007.22
2022-08-22T19:37:31.901Z,1007.23
2022-08-22T19:40:24.016Z,1007.23
2022-08-22T19:43:31.829Z,1007.30
2022-08-22T19:46:39.522Z,1007.37
2022-08-22T19:49:47.663Z,1007.46
2022-08-22T19:52:56.182Z,1007.46
2022-08-22T19:56:03.604Z,1007.37
2022-08-22T19:59:11.526Z,1007.45
2022-08-22T20:02:21.099Z,1007.41
2022-08-22T20:05:28.989Z,1007.51
2022-08-22T20:08:36.610Z,1007.44
2022-08-22T20:11:44.310Z,1007.46
2022-08-22T20:14:52.242Z,1007.42
2022-08-22T20:21:04.984Z,1007.50
2022-08-22T20:24:12.695Z,1007.51
2022-08-22T20:27:20.099Z,1007.51
2022-08-22T20:30:28.089Z,1007.58
2022-08-22T20:33:37.240Z,1007.62
2022-08-22T20:36:44.601Z,1007.59
2022-08-22T20:39:58.818Z,1007.64
2022-08-22T20:42:57.053Z,1007.61
2022-08-22T20:46:04.846Z,1007.55
2022-08-22T20:49:13.134Z,1007.60
2022-08-22T20:52:13.996Z,1007.73
2022-08-22T20:55:21.659Z,1007.74
2022-08-22T20:58:29.728Z,1007.74
2022-08-22T21:01:30.528Z,1007.74
2022-08-22T21:04:42.066Z,1007.78
2022-08-22T21:07:39.711Z,1007.70
2022-08-22T21:10:49.162Z,1007.71
2022-08-22T21:13:56.864Z,1007.73
2022-08-22T21:17:04.546Z,1007.66
2022-08-22T21:20:12.265Z,1007.78
2022-08-22T21:23:19.537Z,1007.78
2022-08-22T21:26:27.556Z,1007.70
2022-08-22T21:29:35.758Z,1007.82
2022-08-22T21:32:43.099Z,1007.74
2022-08-22T21:35:51.210Z,1007.80
2022-08-22T21:38:58.872Z,1007.78
2022-08-22T21:42:06.574Z,1007.81
2022-08-22T21:45:14.464Z,1007.75
2022-08-22T21:48:22.084Z,1007.78
2022-08-22T21:51:29.786Z,1007.73
2022-08-22T21:54:37.784Z,1007.72
2022-08-22T21:57:45.158Z,1007.74
2022-08-22T22:00:52.960Z,1007.75
2022-08-22T22:04:02.601Z,1007.76
2022-08-22T22:07:12.481Z,1007.77
2022-08-22T22:10:14.532Z,1007.84
2022-08-22T22:13:23.824Z,1007.87
2022-08-22T22:16:33.809Z,1007.84
2022-08-22T22:19:42.175Z,1007.78
2022-08-22T22:22:51.296Z,1007.84
2022-08-22T22:26:00.648Z,1007.79
2022-08-22T22:29:09.278Z,1007.87
2022-08-22T22:32:10.219Z,1007.82
2022-08-22T22:35:19.760Z,1007.88
2022-08-22T22:38:28.593Z,1007.83
2022-08-22T22:41:38.031Z,1007.83
2022-08-22T22:44:47.661Z,1007.90
2022-08-22T22:47:56.532Z,1007.86
2022-08-22T22:51:05.905Z,1007.94
2022-08-22T22:54:14.263Z,1007.91
2022-08-22T22:57:25.541Z,1007.94
2022-08-22T23:00:34.560Z,1007.98
2022-08-22T23:03:42.850Z,1007.99
2022-08-22T23:06:53.301Z,1007.98
2022-08-22T23:10:02.236Z,1007.98
2022-08-22T23:13:09.881Z,1008.03
2022-08-22T23:16:17.793Z,1007.95
2022-08-22T23:19:25.415Z,1007.95
2022-08-22T23:22:33.016Z,1007.92
2022-08-22T23:25:40.906Z,1007.93
2022-08-22T23:28:48.815Z,1007.97
2022-08-22T23:31:56.565Z,1008.05
2022-08-22T23:35:04.591Z,1008.01
2022-08-22T23:38:12.201Z,1008.11
2022-08-22T23:41:19.702Z,1008.13
2022-08-22T23:44:27.143Z,1008.07
2022-08-22T23:47:35.185Z,1008.09
2022-08-22T23:50:42.865Z,1008.13
2022-08-22T23:53:50.817Z,1008.14
2022-08-22T23:56:58.926Z,1008.10
